Weather at Trois-Rivières Airport

Public forecast

Using degrees Celsius for public forecast. Weather courtesy of forecast.io.

Current aviation weather report (METAR) for Trois-Rivières Airport

Report is more than 6 hours old.

Retrieved 2020/10/29 15:00 UTC (13 hours ago):

CYRQ 291500Z AUTO 03009KT 9SM FEW055 BKN080 BKN099 03/M01 A2992 RMK SLP137

Aviation forecast (TAF) for Trois-Rivières Airport

Forecast is more than 12 hours old.

Retrieved 2020/10/29 14:00 UTC (14 hours ago):

TAF CYRQ 291338Z 2914/3002 36005KT P6SM OVC040 FM300000 01007KT P6SM SCT040 RMK FCST BASED ON AUTO OBS NXT FCST BY 292000Z